Time;durP1;ratioP1;P1;durP2;ratioP2;P2;SDS_P1;SDS_P2;PMS_P1;PMS_P2;Temp;Humidity;BMP_temperature;BMP_pressure;BME280_temperature;BME280_humidity;BME280_pressure;Samples;Min_cycle;Max_cycle;Signal;HPM_P1;HPM_P2
2022/01/30 00:02:25;;;;;;;34.00;19.63;;;;;;;;;;5096618;28;20024;-67
2022/01/30 00:04:51;;;;;;;31.98;17.80;;;;;;;;;;5096608;28;20020;-67
2022/01/30 00:07:17;;;;;;;25.90;16.25;;;;;;;;;;5096156;28;20024;-67
2022/01/30 00:09:45;;;;;;;28.25;15.27;;;;;;;;;;5096573;28;20024;-67
2022/01/30 00:12:15;;;;;;;39.22;19.58;;;;;;;;;;5095990;28;20016;-67
2022/01/30 00:14:41;;;;;;;43.55;21.55;;;;;;;;;;5096463;28;20373;-67
2022/01/30 00:17:17;;;;;;;37.85;21.30;;;;;;;;;;5096311;28;20016;-67
2022/01/30 00:22:35;;;;;;;44.28;23.17;;;;;;;;;;5096221;28;20031;-67
2022/01/30 00:25:06;;;;;;;33.67;19.25;;;;;;;;;;5095921;28;20041;-67
2022/01/30 00:27:45;;;;;;;37.25;19.95;;;;;;;;;;5095991;28;20385;-67
2022/01/30 00:30:14;;;;;;;45.10;22.38;;;;;;;;;;5096493;28;20411;-67
2022/01/30 00:32:40;;;;;;;37.33;20.90;;;;;;;;;;5095930;28;20058;-67
2022/01/30 00:35:09;;;;;;;44.92;22.45;;;;;;;;;;5095565;28;20031;-67
2022/01/30 00:37:40;;;;;;;41.15;22.77;;;;;;;;;;5096206;28;20020;-67
2022/01/30 00:40:06;;;;;;;39.40;24.25;;;;;;;;;;5096056;28;20020;-67
2022/01/30 00:42:33;;;;;;;38.38;21.42;;;;;;;;;;5095355;28;20472;-67
2022/01/30 00:44:59;;;;;;;46.78;23.85;;;;;;;;;;5096108;28;20020;-68
2022/01/30 00:47:25;;;;;;;54.28;27.40;;;;;;;;;;5095412;28;20016;-67
2022/01/30 00:49:51;;;;;;;30.20;17.98;;;;;;;;;;5095663;28;20020;-67
2022/01/30 00:52:18;;;;;;;36.70;19.20;;;;;;;;;;5095439;28;20040;-67
2022/01/30 00:54:45;;;;;;;32.10;19.48;;;;;;;;;;5095096;28;20107;-65
2022/01/30 00:57:11;;;;;;;53.85;28.60;;;;;;;;;;5095720;28;20053;-67
2022/01/30 00:59:37;;;;;;;78.75;37.03;;;;;;;;;;5095455;28;20035;-67
2022/01/30 01:02:04;;;;;;;82.25;37.55;;;;;;;;;;5095061;28;20016;-67
2022/01/30 01:04:30;;;;;;;95.70;43.53;;;;;;;;;;5094042;28;20031;-65
2022/01/30 01:06:57;;;;;;;80.13;36.78;;;;;;;;;;5095331;28;20028;-65
2022/01/30 01:09:30;;;;;;;88.30;39.75;;;;;;;;;;5094785;28;20564;-65
2022/01/30 01:12:52;;;;;;;102.65;44.20;;;;;;;;;;5095738;28;20024;-65
2022/01/30 01:25:44;;;;;;;45.28;23.15;;;;;;;;;;5094980;28;20089;-66
2022/01/30 01:28:11;;;;;;;44.25;21.58;;;;;;;;;;5095108;28;20042;-67
2022/01/30 01:30:37;;;;;;;36.92;19.48;;;;;;;;;;5094485;28;20032;-67
2022/01/30 01:33:04;;;;;;;43.22;19.25;;;;;;;;;;5094730;28;20059;-67
2022/01/30 01:35:30;;;;;;;30.70;17.42;;;;;;;;;;5094758;28;20038;-67
2022/01/30 01:37:57;;;;;;;26.38;13.93;;;;;;;;;;5093483;28;20384;-66
2022/01/30 01:40:23;;;;;;;24.17;13.38;;;;;;;;;;5093386;28;20048;-67
2022/01/30 01:42:49;;;;;;;23.60;12.25;;;;;;;;;;5094602;28;20020;-66
2022/01/30 01:45:20;;;;;;;20.83;10.57;;;;;;;;;;5094306;28;20050;-67
2022/01/30 01:47:47;;;;;;;21.05;11.30;;;;;;;;;;5094942;28;20016;-67
2022/01/30 01:50:27;;;;;;;20.13;10.75;;;;;;;;;;5093202;28;20093;-67
2022/01/30 01:52:54;;;;;;;22.75;10.73;;;;;;;;;;5093686;28;20048;-65
2022/01/30 01:55:20;;;;;;;20.55;10.75;;;;;;;;;;5094402;28;20392;-67
2022/01/30 01:57:46;;;;;;;19.80;11.52;;;;;;;;;;5094348;28;20020;-67
2022/01/30 02:00:13;;;;;;;22.63;12.63;;;;;;;;;;5094320;28;20028;-67
2022/01/30 02:02:39;;;;;;;24.20;11.68;;;;;;;;;;5094571;28;20016;-66
2022/01/30 02:05:06;;;;;;;28.20;14.15;;;;;;;;;;5093791;28;20027;-66
2022/01/30 02:10:07;;;;;;;35.35;17.73;;;;;;;;;;5094224;28;20024;-67
2022/01/30 02:12:43;;;;;;;30.15;16.05;;;;;;;;;;5093774;28;20483;-67
2022/01/30 02:26:00;;;;;;;29.02;16.80;;;;;;;;;;5093739;28;20081;-67
2022/01/30 02:28:29;;;;;;;25.88;14.75;;;;;;;;;;5093899;28;20024;-66
2022/01/30 02:31:07;;;;;;;24.52;14.18;;;;;;;;;;5092530;28;20487;-67
2022/01/30 02:33:34;;;;;;;28.08;14.07;;;;;;;;;;5093508;28;20070;-67
2022/01/30 02:36:00;;;;;;;26.35;14.00;;;;;;;;;;5093870;28;20473;-67
2022/01/30 02:38:26;;;;;;;29.45;15.80;;;;;;;;;;5093730;28;20039;-67
2022/01/30 02:40:56;;;;;;;35.58;18.25;;;;;;;;;;5093244;28;20020;-66
2022/01/30 02:43:27;;;;;;;34.22;17.75;;;;;;;;;;5093763;28;20073;-67
2022/01/30 02:46:11;;;;;;;32.85;16.20;;;;;;;;;;5093558;28;20028;-66
2022/01/30 02:48:50;;;;;;;35.15;17.05;;;;;;;;;;5093073;28;20016;-66
2022/01/30 02:51:18;;;;;;;37.45;16.85;;;;;;;;;;5093575;28;20020;-65
2022/01/30 02:53:54;;;;;;;36.75;18.98;;;;;;;;;;5093148;28;20051;-67
2022/01/30 02:56:21;;;;;;;38.97;19.15;;;;;;;;;;5093626;28;20043;-67
2022/01/30 02:58:47;;;;;;;37.88;19.63;;;;;;;;;;5093366;28;20046;-67
2022/01/30 03:01:13;;;;;;;35.28;17.25;;;;;;;;;;5093097;28;20016;-67
2022/01/30 03:03:39;;;;;;;31.08;16.73;;;;;;;;;;5093622;28;20032;-67
2022/01/30 03:06:05;;;;;;;26.95;15.45;;;;;;;;;;5093441;28;20480;-67
2022/01/30 03:08:32;;;;;;;24.58;13.63;;;;;;;;;;5093005;28;20095;-67
2022/01/30 03:10:58;;;;;;;27.98;16.30;;;;;;;;;;5093363;28;20112;-67
2022/01/30 03:13:24;;;;;;;34.08;16.88;;;;;;;;;;5093175;28;20028;-66
2022/01/30 03:15:50;;;;;;;30.40;15.63;;;;;;;;;;5092964;28;20110;-66
2022/01/30 03:18:16;;;;;;;44.25;20.85;;;;;;;;;;5093525;28;20460;-67
2022/01/30 03:20:43;;;;;;;37.53;18.08;;;;;;;;;;5093238;28;20028;-66
2022/01/30 03:23:09;;;;;;;38.80;19.05;;;;;;;;;;5092856;28;20066;-67
2022/01/30 03:25:35;;;;;;;29.38;17.27;;;;;;;;;;5093223;28;20016;-67
2022/01/30 03:28:04;;;;;;;39.72;12.88;;;;;;;;;;5091935;28;20045;-66
2022/01/30 03:30:30;;;;;;;35.58;14.95;;;;;;;;;;5092822;28;20020;-67
2022/01/30 03:32:57;;;;;;;50.53;16.50;;;;;;;;;;5092075;28;20416;-67
2022/01/30 03:35:23;;;;;;;43.28;16.20;;;;;;;;;;5093446;28;20055;-67
2022/01/30 03:37:49;;;;;;;28.75;13.02;;;;;;;;;;5092943;28;20034;-66
2022/01/30 03:40:16;;;;;;;24.88;13.20;;;;;;;;;;5093103;28;20491;-66
2022/01/30 03:42:42;;;;;;;23.60;11.75;;;;;;;;;;5093224;28;20024;-67
2022/01/30 03:45:09;;;;;;;25.33;11.02;;;;;;;;;;5092694;28;20095;-66
2022/01/30 03:47:35;;;;;;;24.08;11.18;;;;;;;;;;5092992;28;20520;-67
2022/01/30 03:50:01;;;;;;;23.80;10.43;;;;;;;;;;5093001;28;20024;-67
2022/01/30 03:52:27;;;;;;;25.90;10.57;;;;;;;;;;5092399;28;20013;-67
2022/01/30 03:54:54;;;;;;;20.40;11.02;;;;;;;;;;5093163;28;20036;-67
2022/01/30 03:57:20;;;;;;;22.95;11.40;;;;;;;;;;5092625;28;20404;-67
2022/01/30 03:59:46;;;;;;;22.23;11.57;;;;;;;;;;5092903;28;20028;-67
2022/01/30 04:02:12;;;;;;;22.13;9.77;;;;;;;;;;5096335;28;20032;-67
2022/01/30 04:04:38;;;;;;;20.00;10.65;;;;;;;;;;5096287;28;20053;-68
2022/01/30 04:07:05;;;;;;;22.00;12.13;;;;;;;;;;5096597;28;20109;-67
2022/01/30 04:09:31;;;;;;;24.58;13.70;;;;;;;;;;5096495;28;20024;-67
2022/01/30 04:11:57;;;;;;;25.67;12.80;;;;;;;;;;5096099;28;20051;-67
2022/01/30 04:14:24;;;;;;;21.33;11.35;;;;;;;;;;5096313;28;20472;-67
2022/01/30 04:16:50;;;;;;;22.50;11.65;;;;;;;;;;5096258;28;20024;-67
2022/01/30 04:19:16;;;;;;;18.27;10.40;;;;;;;;;;5095937;28;20059;-66
2022/01/30 04:21:43;;;;;;;25.88;12.30;;;;;;;;;;5094939;28;20021;-66
2022/01/30 04:24:09;;;;;;;22.05;11.60;;;;;;;;;;5096715;28;20415;-67
2022/01/30 04:26:36;;;;;;;23.42;13.07;;;;;;;;;;5095755;28;20476;-66
2022/01/30 04:29:03;;;;;;;33.10;18.90;;;;;;;;;;5096139;28;20024;-66
2022/01/30 04:31:29;;;;;;;31.75;18.50;;;;;;;;;;5096331;28;20021;-66
2022/01/30 04:33:56;;;;;;;25.80;13.70;;;;;;;;;;5095579;28;20024;-66
2022/01/30 04:36:28;;;;;;;38.50;19.33;;;;;;;;;;5094697;28;20024;-66
2022/01/30 04:39:06;;;;;;;48.97;24.57;;;;;;;;;;5096001;28;20020;-67
2022/01/30 04:52:48;;;;;;;33.47;17.50;;;;;;;;;;5095718;28;20089;-66
2022/01/30 05:03:31;;;;;;;28.08;15.15;;;;;;;;;;5095721;28;20101;-67
2022/01/30 05:06:11;;;;;;;37.40;17.50;;;;;;;;;;5095412;28;20024;-67
2022/01/30 05:08:38;;;;;;;35.28;17.23;;;;;;;;;;5095017;28;20051;-66
2022/01/30 05:11:07;;;;;;;28.55;14.45;;;;;;;;;;5095399;28;20464;-67
2022/01/30 05:13:36;;;;;;;28.55;15.15;;;;;;;;;;5095098;28;20103;-66
2022/01/30 05:16:02;;;;;;;31.88;15.63;;;;;;;;;;5094712;28;20055;-66
2022/01/30 05:18:29;;;;;;;52.05;26.30;;;;;;;;;;5095446;28;20020;-66
2022/01/30 05:20:56;;;;;;;40.35;20.10;;;;;;;;;;5094981;28;20032;-67
2022/01/30 05:23:23;;;;;;;42.08;21.00;;;;;;;;;;5094563;28;20091;-65
2022/01/30 05:25:50;;;;;;;27.38;15.43;;;;;;;;;;5094878;28;20027;-65
2022/01/30 05:28:17;;;;;;;21.13;11.40;;;;;;;;;;5094870;28;20027;-66
2022/01/30 05:30:44;;;;;;;28.48;13.52;;;;;;;;;;5094400;28;20471;-65
2022/01/30 05:33:11;;;;;;;28.98;13.88;;;;;;;;;;5094666;28;20035;-65
2022/01/30 05:35:37;;;;;;;28.52;14.65;;;;;;;;;;5094704;28;20055;-65
2022/01/30 05:38:05;;;;;;;27.25;13.80;;;;;;;;;;5094216;28;20020;-66
2022/01/30 05:40:32;;;;;;;39.13;19.55;;;;;;;;;;5094722;28;20085;-67
2022/01/30 05:42:58;;;;;;;47.15;23.77;;;;;;;;;;5094098;28;20099;-65
2022/01/30 05:48:08;;;;;;;40.78;19.67;;;;;;;;;;5094445;28;20078;-65
2022/01/30 05:50:35;;;;;;;39.97;21.55;;;;;;;;;;5094069;28;20115;-65
2022/01/30 05:53:01;;;;;;;42.00;19.70;;;;;;;;;;5094206;28;20044;-66
2022/01/30 05:55:27;;;;;;;41.92;20.05;;;;;;;;;;5094418;28;20024;-65
2022/01/30 05:57:54;;;;;;;39.38;19.30;;;;;;;;;;5093803;28;20077;-65
2022/01/30 06:00:20;;;;;;;37.10;18.38;;;;;;;;;;5094198;28;20039;-65
2022/01/30 06:02:47;;;;;;;37.88;20.27;;;;;;;;;;5094153;28;20024;-65
2022/01/30 06:05:15;;;;;;;43.28;21.60;;;;;;;;;;5093856;28;20582;-65
2022/01/30 06:07:52;;;;;;;47.40;22.13;;;;;;;;;;5094041;28;20089;-66
2022/01/30 06:10:19;;;;;;;37.88;19.38;;;;;;;;;;5094344;28;20044;-66
2022/01/30 06:12:45;;;;;;;28.35;14.63;;;;;;;;;;5093603;28;20413;-65
2022/01/30 06:15:13;;;;;;;31.15;14.48;;;;;;;;;;5093929;28;20056;-65
2022/01/30 06:17:40;;;;;;;37.85;20.17;;;;;;;;;;5093938;28;20020;-66
2022/01/30 06:20:06;;;;;;;33.72;17.65;;;;;;;;;;5092187;28;20035;-65
2022/01/30 06:22:33;;;;;;;34.38;17.98;;;;;;;;;;5093824;28;20024;-65
2022/01/30 06:24:59;;;;;;;28.73;15.88;;;;;;;;;;5093004;28;20476;-66
2022/01/30 06:27:25;;;;;;;36.10;18.52;;;;;;;;;;5093778;28;20045;-65
2022/01/30 06:29:51;;;;;;;21.98;13.07;;;;;;;;;;5093765;28;20373;-66
2022/01/30 06:32:18;;;;;;;23.42;12.10;;;;;;;;;;5093303;28;20028;-66
2022/01/30 06:34:44;;;;;;;21.65;10.90;;;;;;;;;;5093613;28;20036;-66
2022/01/30 06:37:10;;;;;;;20.48;11.30;;;;;;;;;;5093613;28;20411;-66
2022/01/30 06:39:36;;;;;;;27.23;14.23;;;;;;;;;;5093118;28;20549;-66
2022/01/30 06:42:02;;;;;;;51.80;24.55;;;;;;;;;;5093462;28;20038;-66
2022/01/30 06:44:29;;;;;;;48.72;26.83;;;;;;;;;;5093585;28;20028;-66
2022/01/30 06:46:55;;;;;;;67.53;32.90;;;;;;;;;;5093000;28;20034;-66
2022/01/30 06:49:21;;;;;;;54.13;30.88;;;;;;;;;;5093469;28;20107;-66
2022/01/30 06:51:47;;;;;;;64.28;31.73;;;;;;;;;;5093538;28;20020;-67
2022/01/30 06:54:13;;;;;;;54.50;27.17;;;;;;;;;;5092977;28;20127;-68
2022/01/30 06:56:40;;;;;;;53.50;26.55;;;;;;;;;;5093879;28;20038;-66
2022/01/30 06:59:06;;;;;;;52.35;25.88;;;;;;;;;;5093643;28;20492;-67
2022/01/30 07:01:32;;;;;;;45.47;23.42;;;;;;;;;;5093054;28;20024;-67
2022/01/30 07:03:58;;;;;;;39.78;18.88;;;;;;;;;;5093615;28;20111;-67
2022/01/30 07:06:24;;;;;;;36.78;19.90;;;;;;;;;;5093321;28;20545;-67
2022/01/30 07:08:51;;;;;;;47.42;22.05;;;;;;;;;;5092834;28;20031;-67
2022/01/30 07:11:17;;;;;;;37.38;19.73;;;;;;;;;;5093352;28;20028;-67
2022/01/30 07:13:44;;;;;;;41.35;19.98;;;;;;;;;;5093181;28;20032;-66
2022/01/30 07:16:10;;;;;;;29.33;17.30;;;;;;;;;;5092737;28;20095;-66
2022/01/30 07:18:36;;;;;;;30.73;17.17;;;;;;;;;;5093510;28;20028;-66
2022/01/30 07:21:04;;;;;;;25.35;14.60;;;;;;;;;;5093200;28;20047;-66
2022/01/30 07:23:30;;;;;;;34.03;16.75;;;;;;;;;;5092566;28;20020;-67
2022/01/30 07:25:57;;;;;;;27.88;16.35;;;;;;;;;;5093136;28;20028;-67
2022/01/30 07:28:23;;;;;;;31.45;16.20;;;;;;;;;;5092641;28;20052;-66
2022/01/30 07:30:49;;;;;;;32.00;18.27;;;;;;;;;;5093413;28;20031;-66
2022/01/30 07:33:15;;;;;;;34.72;20.35;;;;;;;;;;5092973;28;20476;-67
2022/01/30 07:35:42;;;;;;;39.90;22.55;;;;;;;;;;5093642;28;20058;-66
2022/01/30 07:38:09;;;;;;;64.68;32.10;;;;;;;;;;5097139;28;20042;-66
2022/01/30 07:40:35;;;;;;;59.15;33.33;;;;;;;;;;5097154;28;20074;-66
2022/01/30 07:43:02;;;;;;;49.47;27.63;;;;;;;;;;5096508;28;20358;-67
2022/01/30 07:45:28;;;;;;;64.22;35.92;;;;;;;;;;5095518;28;20024;-66
2022/01/30 07:47:54;;;;;;;86.88;48.67;;;;;;;;;;5097038;28;20066;-66
2022/01/30 07:50:21;;;;;;;97.18;51.45;;;;;;;;;;5096239;28;20040;-66
2022/01/30 07:52:47;;;;;;;80.07;46.85;;;;;;;;;;5096914;28;20391;-66
2022/01/30 07:55:13;;;;;;;65.60;39.15;;;;;;;;;;5096650;28;20036;-66
2022/01/30 07:57:41;;;;;;;72.22;40.30;;;;;;;;;;5096315;28;20023;-68
2022/01/30 08:00:08;;;;;;;76.38;44.30;;;;;;;;;;5096572;28;20024;-66
2022/01/30 08:02:34;;;;;;;110.97;55.47;;;;;;;;;;5096555;28;20361;-66
2022/01/30 08:05:00;;;;;;;87.03;49.80;;;;;;;;;;5096291;28;20078;-66
2022/01/30 08:07:27;;;;;;;90.38;48.08;;;;;;;;;;5095169;28;20028;-66
2022/01/30 08:09:53;;;;;;;90.07;47.05;;;;;;;;;;5096410;28;20027;-66
2022/01/30 08:12:19;;;;;;;224.48;107.63;;;;;;;;;;5096035;28;20381;-66
2022/01/30 08:14:46;;;;;;;93.38;45.50;;;;;;;;;;5096320;28;20114;-66
2022/01/30 08:17:18;;;;;;;69.50;33.95;;;;;;;;;;5094986;28;20492;-66
2022/01/30 08:19:46;;;;;;;59.80;33.00;;;;;;;;;;5095880;28;20460;-66
2022/01/30 08:22:13;;;;;;;93.95;40.72;;;;;;;;;;5096247;28;20055;-66
2022/01/30 08:24:39;;;;;;;75.53;38.58;;;;;;;;;;5095772;28;20024;-66
2022/01/30 08:27:05;;;;;;;52.38;28.63;;;;;;;;;;5096204;28;20376;-66
2022/01/30 08:29:32;;;;;;;44.78;23.25;;;;;;;;;;5096041;28;20085;-66
2022/01/30 08:31:58;;;;;;;31.98;17.42;;;;;;;;;;5095861;28;20016;-65
2022/01/30 08:34:25;;;;;;;36.65;19.88;;;;;;;;;;5095764;28;20039;-66
2022/01/30 08:36:51;;;;;;;54.15;25.00;;;;;;;;;;5095902;28;20043;-65
2022/01/30 08:39:17;;;;;;;42.63;18.73;;;;;;;;;;5095527;28;20097;-65
2022/01/30 08:41:44;;;;;;;35.63;20.17;;;;;;;;;;5095976;28;20027;-67
2022/01/30 08:44:10;;;;;;;44.47;25.45;;;;;;;;;;5095860;28;20062;-67
2022/01/30 08:46:36;;;;;;;26.83;14.98;;;;;;;;;;5095294;28;20052;-66
2022/01/30 08:49:02;;;;;;;20.35;12.48;;;;;;;;;;5095758;28;20027;-66
2022/01/30 08:51:29;;;;;;;26.13;12.98;;;;;;;;;;5094465;28;20366;-66
2022/01/30 08:53:55;;;;;;;20.17;12.13;;;;;;;;;;5095139;28;20496;-66
2022/01/30 08:56:24;;;;;;;25.88;15.13;;;;;;;;;;5095307;28;20059;-66
2022/01/30 08:58:50;;;;;;;41.13;22.50;;;;;;;;;;5095445;28;20028;-66
2022/01/30 09:01:16;;;;;;;30.42;19.35;;;;;;;;;;5095087;28;20022;-66
2022/01/30 09:03:46;;;;;;;30.88;18.08;;;;;;;;;;5095464;28;20028;-66
2022/01/30 09:06:12;;;;;;;29.33;14.70;;;;;;;;;;5094087;28;20567;-67
2022/01/30 09:08:38;;;;;;;28.10;13.82;;;;;;;;;;5094903;28;20031;-67
2022/01/30 09:11:05;;;;;;;25.98;13.23;;;;;;;;;;5095285;28;20028;-67
2022/01/30 09:13:32;;;;;;;28.05;15.10;;;;;;;;;;5095228;28;20103;-66
2022/01/30 09:15:59;;;;;;;29.10;15.52;;;;;;;;;;5094844;28;20028;-67
2022/01/30 09:18:26;;;;;;;30.52;16.75;;;;;;;;;;5093882;28;20057;-67
2022/01/30 09:20:53;;;;;;;30.23;17.63;;;;;;;;;;5094702;28;20016;-67
2022/01/30 09:23:19;;;;;;;37.03;17.52;;;;;;;;;;5095092;28;20020;-67
2022/01/30 09:25:46;;;;;;;30.85;17.67;;;;;;;;;;5094987;28;20058;-67
2022/01/30 09:28:13;;;;;;;31.98;17.70;;;;;;;;;;5094814;28;20047;-67
2022/01/30 09:30:39;;;;;;;29.00;18.05;;;;;;;;;;5094957;28;20032;-67
2022/01/30 09:33:05;;;;;;;29.40;15.98;;;;;;;;;;5094969;28;20408;-67
2022/01/30 09:35:31;;;;;;;29.70;16.05;;;;;;;;;;5094414;28;20020;-67
2022/01/30 09:37:58;;;;;;;28.67;15.85;;;;;;;;;;5094795;28;20071;-67
2022/01/30 09:40:25;;;;;;;25.95;14.88;;;;;;;;;;5095297;28;20024;-67
2022/01/30 09:42:52;;;;;;;29.65;15.90;;;;;;;;;;5094292;28;20112;-67
2022/01/30 09:45:22;;;;;;;24.02;13.52;;;;;;;;;;5094708;28;20400;-67
2022/01/30 09:47:49;;;;;;;23.38;13.07;;;;;;;;;;5094879;28;20031;-67
2022/01/30 09:50:17;;;;;;;23.60;12.77;;;;;;;;;;5094145;28;20078;-67
2022/01/30 09:52:43;;;;;;;35.75;18.73;;;;;;;;;;5094566;28;20520;-66
2022/01/30 09:55:11;;;;;;;29.30;15.43;;;;;;;;;;5094424;28;20429;-67
2022/01/30 09:57:37;;;;;;;26.90;14.95;;;;;;;;;;5093844;28;20069;-67
2022/01/30 10:00:08;;;;;;;23.83;14.32;;;;;;;;;;5093948;28;20024;-67
2022/01/30 10:02:35;;;;;;;21.73;13.70;;;;;;;;;;5094334;28;20100;-67
2022/01/30 10:05:01;;;;;;;26.75;15.25;;;;;;;;;;5093825;28;20095;-67
2022/01/30 10:07:45;;;;;;;27.20;14.95;;;;;;;;;;5094439;28;20054;-67
2022/01/30 10:10:11;;;;;;;;;;;;;;;;;;5094552;28;20487;-67
2022/01/30 10:12:57;;;;;;;14.18;8.52;;;;;;;;;;5094301;28;19911;-67
2022/01/30 10:15:23;;;;;;;14.23;8.43;;;;;;;;;;5094124;28;20598;-67
2022/01/30 10:17:50;;;;;;;24.80;16.92;;;;;;;;;;5093943;28;20024;-67
2022/01/30 10:20:16;;;;;;;33.55;22.15;;;;;;;;;;5094023;28;20020;-67
2022/01/30 10:22:49;;;;;;;19.63;11.93;;;;;;;;;;5093987;28;20031;-67
2022/01/30 10:25:20;;;;;;;17.10;12.77;;;;;;;;;;5093569;28;20027;-68
2022/01/30 10:27:46;;;;;;;15.93;10.45;;;;;;;;;;5093987;28;20031;-67
2022/01/30 10:30:12;;;;;;;16.17;10.25;;;;;;;;;;5093866;28;20020;-67
2022/01/30 10:32:39;;;;;;;19.38;10.25;;;;;;;;;;5093537;28;20376;-67
2022/01/30 10:35:06;;;;;;;14.90;8.07;;;;;;;;;;5093712;28;20035;-67
2022/01/30 10:37:33;;;;;;;13.80;6.93;;;;;;;;;;5093800;28;20430;-67
2022/01/30 10:40:07;;;;;;;16.17;8.65;;;;;;;;;;5093200;28;20051;-67
2022/01/30 10:42:35;;;;;;;15.02;9.30;;;;;;;;;;5093737;28;20048;-67
2022/01/30 10:45:02;;;;;;;14.43;7.97;;;;;;;;;;5093776;28;20046;-67
2022/01/30 10:47:30;;;;;;;14.68;8.38;;;;;;;;;;5092200;28;20384;-67
2022/01/30 10:49:57;;;;;;;12.05;8.27;;;;;;;;;;5094131;28;20025;-67
2022/01/30 10:52:23;;;;;;;23.17;13.43;;;;;;;;;;5092971;28;20030;-67
2022/01/30 10:54:50;;;;;;;44.03;24.40;;;;;;;;;;5093514;28;20036;-67
2022/01/30 10:57:17;;;;;;;26.02;15.05;;;;;;;;;;5093489;28;20020;-67
2022/01/30 10:59:52;;;;;;;17.95;11.27;;;;;;;;;;5092974;28;20073;-67
2022/01/30 11:02:22;;;;;;;20.90;13.73;;;;;;;;;;5093755;28;20477;-67
2022/01/30 11:04:49;;;;;;;23.88;14.90;;;;;;;;;;5093398;28;20039;-67
2022/01/30 11:07:17;;;;;;;37.15;22.85;;;;;;;;;;5092978;28;20024;-67
2022/01/30 11:10:00;;;;;;;16.85;10.90;;;;;;;;;;5094446;28;20024;-67
2022/01/30 11:12:40;;;;;;;20.02;12.38;;;;;;;;;;5097646;28;20058;-66
2022/01/30 11:17:43;;;;;;;21.33;12.07;;;;;;;;;;5097464;28;20062;-67
2022/01/30 11:21:40;;;;;;;21.23;12.68;;;;;;;;;;5110958;27;20316;-68
2022/01/30 11:24:08;;;;;;;17.13;11.48;;;;;;;;;;5090936;28;20028;-67
2022/01/30 11:26:35;;;;;;;17.17;10.70;;;;;;;;;;5090835;28;20100;-69
2022/01/30 11:29:01;;;;;;;20.40;10.35;;;;;;;;;;5090586;28;20031;-68
2022/01/30 11:32:09;;;;;;;19.92;10.73;;;;;;;;;;5111980;27;20454;-68
2022/01/30 11:35:51;;;;;;;14.80;8.60;;;;;;;;;;5111164;27;20435;-68
2022/01/30 11:38:41;;;;;;;14.73;9.27;;;;;;;;;;5111809;27;20393;-68
2022/01/30 11:41:11;;;;;;;20.77;11.50;;;;;;;;;;5111286;28;20103;-68
2022/01/30 11:43:37;;;;;;;12.18;8.13;;;;;;;;;;5110899;28;20024;-68
2022/01/30 11:46:17;;;;;;;16.27;8.60;;;;;;;;;;5111263;28;20020;-68
2022/01/30 11:48:43;;;;;;;15.38;9.40;;;;;;;;;;5110830;28;20031;-68
2022/01/30 11:51:10;;;;;;;14.65;8.13;;;;;;;;;;5109737;28;20027;-68
2022/01/30 11:54:36;;;;;;;14.27;8.07;;;;;;;;;;5111511;27;20450;-69
2022/01/30 11:57:03;;;;;;;13.65;7.75;;;;;;;;;;5110853;28;20448;-68
2022/01/30 11:59:40;;;;;;;16.58;9.98;;;;;;;;;;5111443;28;20086;-68
2022/01/30 12:02:22;;;;;;;18.33;10.55;;;;;;;;;;5111166;28;20056;-68
2022/01/30 12:05:52;;;;;;;14.73;10.05;;;;;;;;;;5111502;27;20568;-68
2022/01/30 12:08:36;;;;;;;18.08;11.80;;;;;;;;;;5111295;28;20476;-68
2022/01/30 12:11:02;;;;;;;17.42;10.23;;;;;;;;;;5111085;28;20027;-68
2022/01/30 12:13:58;;;;;;;18.23;11.68;;;;;;;;;;5111191;28;20020;-67
2022/01/30 12:18:42;;;;;;;22.20;13.00;;;;;;;;;;5111027;27;20404;-68
2022/01/30 12:21:09;;;;;;;18.48;10.20;;;;;;;;;;5111293;28;20020;-68
2022/01/30 12:23:36;;;;;;;14.35;9.50;;;;;;;;;;5111271;28;20549;-68
2022/01/30 12:26:05;;;;;;;15.05;9.02;;;;;;;;;;5111391;28;20519;-68
2022/01/30 12:29:56;;;;;;;21.30;10.48;;;;;;;;;;5111726;27;20430;-68
2022/01/30 12:32:22;;;;;;;26.83;15.13;;;;;;;;;;5110809;28;20034;-67
2022/01/30 12:35:54;;;;;;;18.30;11.10;;;;;;;;;;5111525;27;20458;-66
2022/01/30 12:38:29;;;;;;;16.23;10.45;;;;;;;;;;5111047;28;20532;-67
2022/01/30 12:46:10;;;;;;;18.15;8.10;;;;;;;;;;5110896;27;20457;-69
2022/01/30 12:48:37;;;;;;;10.95;7.55;;;;;;;;;;5111391;28;20020;-69
2022/01/30 12:51:07;;;;;;;27.50;16.92;;;;;;;;;;5111201;28;20057;-67
2022/01/30 12:53:36;;;;;;;14.90;9.65;;;;;;;;;;5110903;28;20024;-67
2022/01/30 12:56:03;;;;;;;17.63;10.13;;;;;;;;;;5111072;28;20019;-67
2022/01/30 12:59:29;;;;;;;29.88;16.92;;;;;;;;;;5111387;27;20733;-68
2022/01/30 13:02:03;;;;;;;14.48;8.23;;;;;;;;;;5111243;28;20028;-68
2022/01/30 13:04:29;;;;;;;16.83;11.05;;;;;;;;;;5111611;28;20035;-67
2022/01/30 13:06:55;;;;;;;17.92;10.25;;;;;;;;;;5110839;28;20027;-69
2022/01/30 13:09:25;;;;;;;17.35;12.57;;;;;;;;;;5111135;28;20020;-68
2022/01/30 13:13:50;;;;;;;18.08;10.63;;;;;;;;;;5111476;27;20900;-67
2022/01/30 13:16:16;;;;;;;13.95;9.10;;;;;;;;;;5111249;28;20426;-68
2022/01/30 13:19:42;;;;;;;13.65;8.13;;;;;;;;;;5112105;27;20745;-68
2022/01/30 13:26:10;;;;;;;29.15;13.77;;;;;;;;;;5111921;27;20396;-69
2022/01/30 13:28:36;;;;;;;15.57;8.13;;;;;;;;;;5111008;28;20047;-69
2022/01/30 13:31:12;;;;;;;69.28;34.03;;;;;;;;;;5111125;28;20028;-69
2022/01/30 13:33:39;;;;;;;10.85;5.70;;;;;;;;;;5111318;28;20034;-69
2022/01/30 13:36:34;;;;;;;18.95;10.13;;;;;;;;;;5111675;27;20450;-69
2022/01/30 13:48:00;;;;;;;13.25;7.50;;;;;;;;;;5111319;28;20089;-69
2022/01/30 13:50:49;;;;;;;6.45;3.80;;;;;;;;;;5111916;27;20390;-68
2022/01/30 13:54:04;;;;;;;14.85;7.75;;;;;;;;;;5111799;27;20765;-67
2022/01/30 13:56:30;;;;;;;32.55;15.70;;;;;;;;;;5109666;28;20031;-68
2022/01/30 13:58:56;;;;;;;15.07;9.35;;;;;;;;;;5111586;28;20023;-68
2022/01/30 14:07:57;;;;;;;9.52;5.70;;;;;;;;;;5112001;27;20407;-67
2022/01/30 14:13:28;;;;;;;10.02;4.95;;;;;;;;;;5111372;27;20451;-69
2022/01/30 14:16:05;;;;;;;14.50;8.63;;;;;;;;;;5111220;28;20067;-69
2022/01/30 14:18:36;;;;;;;13.95;8.43;;;;;;;;;;5110792;28;20020;-69
2022/01/30 14:21:04;;;;;;;10.48;5.85;;;;;;;;;;5111395;28;20016;-69
2022/01/30 14:23:37;;;;;;;9.95;6.30;;;;;;;;;;5110987;28;20341;-67
2022/01/30 14:26:03;;;;;;;;;;;;;;;;;;5111886;28;20027;-69
2022/01/30 14:28:30;;;;;;;22.58;14.00;;;;;;;;;;5111133;28;19904;-69
2022/01/30 14:30:58;;;;;;;17.80;9.32;;;;;;;;;;5110518;28;20020;-68
2022/01/30 14:35:21;;;;;;;16.38;9.48;;;;;;;;;;5111321;27;20466;-68
2022/01/30 14:37:48;;;;;;;13.73;7.90;;;;;;;;;;5111082;28;20034;-68
2022/01/30 14:40:17;;;;;;;13.90;8.65;;;;;;;;;;5111150;28;20020;-68
2022/01/30 14:42:57;;;;;;;11.15;6.75;;;;;;;;;;5111470;27;20385;-68
2022/01/30 14:45:24;;;;;;;17.95;9.18;;;;;;;;;;5110801;28;20022;-68
2022/01/30 14:47:50;;;;;;;24.55;12.93;;;;;;;;;;5109947;28;20028;-68
2022/01/30 14:50:16;;;;;;;15.13;9.88;;;;;;;;;;5111191;28;20531;-68
2022/01/30 14:53:36;;;;;;;23.02;14.48;;;;;;;;;;5111371;27;20775;-68
2022/01/30 14:56:26;;;;;;;33.00;18.42;;;;;;;;;;5111745;27;20423;-68
2022/01/30 14:58:52;;;;;;;28.45;17.70;;;;;;;;;;5110913;28;20027;-68
2022/01/30 15:01:19;;;;;;;18.40;10.75;;;;;;;;;;5111210;28;20020;-68
2022/01/30 15:03:45;;;;;;;37.42;21.88;;;;;;;;;;5111279;28;20032;-68
2022/01/30 15:06:11;;;;;;;66.43;31.77;;;;;;;;;;5110729;28;20024;-68
2022/01/30 15:08:37;;;;;;;58.78;27.17;;;;;;;;;;5111258;28;20479;-68
2022/01/30 15:11:03;;;;;;;35.65;20.08;;;;;;;;;;5111298;28;20024;-68
2022/01/30 15:13:32;;;;;;;35.40;21.65;;;;;;;;;;5110548;28;20020;-67
2022/01/30 15:16:06;;;;;;;25.27;15.02;;;;;;;;;;5110932;28;20476;-68
2022/01/30 15:18:35;;;;;;;24.27;15.10;;;;;;;;;;5111063;28;20016;-68
2022/01/30 15:21:01;;;;;;;38.17;21.90;;;;;;;;;;5110436;28;20023;-68
2022/01/30 15:23:28;;;;;;;48.08;29.23;;;;;;;;;;5110808;28;20016;-67
2022/01/30 15:25:55;;;;;;;43.47;26.48;;;;;;;;;;5111080;28;20020;-68
2022/01/30 15:28:21;;;;;;;38.28;23.13;;;;;;;;;;5110217;28;20027;-68
2022/01/30 15:30:47;;;;;;;38.22;23.92;;;;;;;;;;5110757;28;20030;-68
2022/01/30 15:33:13;;;;;;;43.13;24.02;;;;;;;;;;5110577;28;20114;-68
2022/01/30 15:35:42;;;;;;;32.17;18.45;;;;;;;;;;5109996;28;20036;-67
2022/01/30 15:38:08;;;;;;;31.77;19.17;;;;;;;;;;5110695;28;20019;-67
2022/01/30 15:40:35;;;;;;;30.30;19.70;;;;;;;;;;5110350;28;20024;-68
2022/01/30 15:43:01;;;;;;;30.60;18.25;;;;;;;;;;5110498;28;20023;-68
2022/01/30 15:50:39;;;;;;;54.15;27.85;;;;;;;;;;5110586;28;20043;-67
2022/01/30 15:53:05;;;;;;;50.10;30.27;;;;;;;;;;5110571;28;20027;-68
2022/01/30 15:55:31;;;;;;;56.58;38.17;;;;;;;;;;5109404;28;20047;-67
2022/01/30 15:57:58;;;;;;;83.05;50.95;;;;;;;;;;5110279;28;20032;-68
2022/01/30 16:00:24;;;;;;;90.55;54.78;;;;;;;;;;5110145;28;20173;-67
2022/01/30 16:02:50;;;;;;;94.53;61.25;;;;;;;;;;5109800;28;20102;-67
2022/01/30 16:05:18;;;;;;;111.47;62.60;;;;;;;;;;5109999;28;20535;-67
2022/01/30 16:07:45;;;;;;;97.72;60.95;;;;;;;;;;5096504;28;20044;-67